sensor_id;sensor_type;location;lat;lon;timestamp;pressure;altitude;pressure_sealevel;temperature;humidity
66396;BME280;53207;51.378;-1.342;2023-04-16T00:02:02;101174.17;;;21.36;33.74
66396;BME280;53207;51.378;-1.342;2023-04-16T00:04:29;101173.29;;;21.56;33.72
66396;BME280;53207;51.378;-1.342;2023-04-16T00:06:57;101174.33;;;21.52;33.72
66396;BME280;53207;51.378;-1.342;2023-04-16T00:09:24;101178.25;;;21.30;33.71
66396;BME280;53207;51.378;-1.342;2023-04-16T00:11:51;101183.14;;;21.46;33.76
66396;BME280;53207;51.378;-1.342;2023-04-16T00:14:19;101181.06;;;21.25;33.68
66396;BME280;53207;51.378;-1.342;2023-04-16T00:16:46;101179.83;;;21.04;33.55
66396;BME280;53207;51.378;-1.342;2023-04-16T00:19:13;101179.73;;;21.00;33.54
66396;BME280;53207;51.378;-1.342;2023-04-16T00:21:41;101180.48;;;21.22;33.50
66396;BME280;53207;51.378;-1.342;2023-04-16T00:24:08;101180.73;;;20.89;33.57
66396;BME280;53207;51.378;-1.342;2023-04-16T00:26:35;101178.30;;;21.13;33.49
66396;BME280;53207;51.378;-1.342;2023-04-16T00:29:02;101176.37;;;20.92;33.47
66396;BME280;53207;51.378;-1.342;2023-04-16T00:31:32;101173.94;;;21.38;33.43
66396;BME280;53207;51.378;-1.342;2023-04-16T00:33:59;101173.80;;;20.94;33.42
66396;BME280;53207;51.378;-1.342;2023-04-16T00:36:27;101172.14;;;20.91;33.46
66396;BME280;53207;51.378;-1.342;2023-04-16T00:38:55;101171.55;;;21.12;33.43
66396;BME280;53207;51.378;-1.342;2023-04-16T00:41:22;101171.79;;;20.85;33.45
66396;BME280;53207;51.378;-1.342;2023-04-16T00:43:50;101175.61;;;20.88;33.40
66396;BME280;53207;51.378;-1.342;2023-04-16T00:46:18;101176.54;;;20.85;33.45
66396;BME280;53207;51.378;-1.342;2023-04-16T00:48:45;101177.48;;;21.05;33.42
66396;BME280;53207;51.378;-1.342;2023-04-16T00:51:14;101177.56;;;20.81;33.44
66396;BME280;53207;51.378;-1.342;2023-04-16T00:53:41;101177.99;;;21.01;33.44
66396;BME280;53207;51.378;-1.342;2023-04-16T00:56:09;101171.95;;;20.96;33.47
66396;BME280;53207;51.378;-1.342;2023-04-16T00:58:38;101173.18;;;20.95;33.47
66396;BME280;53207;51.378;-1.342;2023-04-16T01:01:06;101170.67;;;21.02;33.35
66396;BME280;53207;51.378;-1.342;2023-04-16T01:03:38;101172.88;;;20.89;33.50
66396;BME280;53207;51.378;-1.342;2023-04-16T01:06:05;101175.05;;;21.16;33.41
66396;BME280;53207;51.378;-1.342;2023-04-16T01:08:33;101172.79;;;20.88;33.44
66396;BME280;53207;51.378;-1.342;2023-04-16T01:11:01;101173.65;;;21.12;33.41
66396;BME280;53207;51.378;-1.342;2023-04-16T01:13:28;101172.85;;;20.88;33.41
66396;BME280;53207;51.378;-1.342;2023-04-16T01:15:55;101167.42;;;20.86;33.41
66396;BME280;53207;51.378;-1.342;2023-04-16T01:18:23;101166.92;;;20.87;33.37
66396;BME280;53207;51.378;-1.342;2023-04-16T01:20:51;101161.91;;;21.03;33.43
66396;BME280;53207;51.378;-1.342;2023-04-16T01:23:18;101162.03;;;20.83;33.38
66396;BME280;53207;51.378;-1.342;2023-04-16T01:25:45;101159.12;;;21.02;33.40
66396;BME280;53207;51.378;-1.342;2023-04-16T01:28:12;101158.11;;;20.59;33.36
66396;BME280;53207;51.378;-1.342;2023-04-16T01:30:40;101160.05;;;20.57;33.36
66396;BME280;53207;51.378;-1.342;2023-04-16T01:33:09;101159.77;;;20.97;33.39
66396;BME280;53207;51.378;-1.342;2023-04-16T01:35:36;101161.84;;;20.76;33.34
66396;BME280;53207;51.378;-1.342;2023-04-16T01:38:05;101159.45;;;20.52;33.34
66396;BME280;53207;51.378;-1.342;2023-04-16T01:40:33;101162.10;;;20.51;33.34
66396;BME280;53207;51.378;-1.342;2023-04-16T01:43:00;101160.95;;;20.94;33.35
66396;BME280;53207;51.378;-1.342;2023-04-16T01:45:27;101157.87;;;20.95;33.30
66396;BME280;53207;51.378;-1.342;2023-04-16T01:47:54;101162.68;;;20.89;33.35
66396;BME280;53207;51.378;-1.342;2023-04-16T01:50:22;101162.76;;;20.93;33.29
66396;BME280;53207;51.378;-1.342;2023-04-16T01:52:49;101164.33;;;20.41;33.36
66396;BME280;53207;51.378;-1.342;2023-04-16T01:55:16;101167.05;;;20.83;33.37
66396;BME280;53207;51.378;-1.342;2023-04-16T01:57:44;101166.19;;;20.86;33.33
66396;BME280;53207;51.378;-1.342;2023-04-16T02:00:11;101164.54;;;20.84;33.30
66396;BME280;53207;51.378;-1.342;2023-04-16T02:02:38;101165.72;;;20.81;33.31
66396;BME280;53207;51.378;-1.342;2023-04-16T02:05:06;101160.66;;;20.80;33.30
66396;BME280;53207;51.378;-1.342;2023-04-16T02:07:33;101158.79;;;20.74;33.36
66396;BME280;53207;51.378;-1.342;2023-04-16T02:10:00;101159.60;;;20.74;33.33
66396;BME280;53207;51.378;-1.342;2023-04-16T02:12:28;101157.56;;;20.73;33.31
66396;BME280;53207;51.378;-1.342;2023-04-16T02:14:55;101156.50;;;20.51;33.30
66396;BME280;53207;51.378;-1.342;2023-04-16T02:17:22;101161.91;;;20.75;33.26
66396;BME280;53207;51.378;-1.342;2023-04-16T02:19:49;101161.43;;;20.72;33.26
66396;BME280;53207;51.378;-1.342;2023-04-16T02:22:17;101158.36;;;20.71;33.25
66396;BME280;53207;51.378;-1.342;2023-04-16T02:24:44;101160.28;;;20.46;33.28
66396;BME280;53207;51.378;-1.342;2023-04-16T02:27:11;101162.86;;;20.71;33.22
66396;BME280;53207;51.378;-1.342;2023-04-16T02:29:39;101162.47;;;20.70;33.20
66396;BME280;53207;51.378;-1.342;2023-04-16T02:32:06;101161.43;;;20.96;33.19
66396;BME280;53207;51.378;-1.342;2023-04-16T02:34:33;101160.06;;;20.65;33.22
66396;BME280;53207;51.378;-1.342;2023-04-16T02:37:01;101159.97;;;20.65;33.22
66396;BME280;53207;51.378;-1.342;2023-04-16T02:39:28;101156.76;;;20.60;33.24
66396;BME280;53207;51.378;-1.342;2023-04-16T02:41:55;101157.47;;;20.64;33.16
66396;BME280;53207;51.378;-1.342;2023-04-16T02:44:23;101154.97;;;20.65;33.14
66396;BME280;53207;51.378;-1.342;2023-04-16T02:46:50;101153.97;;;20.67;33.09
66396;BME280;53207;51.378;-1.342;2023-04-16T02:49:17;101156.44;;;20.66;33.09
66396;BME280;53207;51.378;-1.342;2023-04-16T02:51:44;101157.20;;;20.65;33.06
66396;BME280;53207;51.378;-1.342;2023-04-16T02:54:12;101159.95;;;20.36;33.12
66396;BME280;53207;51.378;-1.342;2023-04-16T02:56:39;101161.94;;;20.56;33.14
66396;BME280;53207;51.378;-1.342;2023-04-16T02:59:07;101161.20;;;20.56;33.10
66396;BME280;53207;51.378;-1.342;2023-04-16T03:01:34;101162.72;;;20.59;33.06
66396;BME280;53207;51.378;-1.342;2023-04-16T03:04:01;101162.47;;;20.60;33.01
66396;BME280;53207;51.378;-1.342;2023-04-16T03:06:28;101163.13;;;20.53;33.09
66396;BME280;53207;51.378;-1.342;2023-04-16T03:08:56;101163.96;;;20.56;33.03
66396;BME280;53207;51.378;-1.342;2023-04-16T03:11:23;101163.65;;;20.55;33.01
66396;BME280;53207;51.378;-1.342;2023-04-16T03:13:50;101160.59;;;20.53;33.03
66396;BME280;53207;51.378;-1.342;2023-04-16T03:16:18;101162.46;;;20.79;33.00
66396;BME280;53207;51.378;-1.342;2023-04-16T03:18:45;101162.48;;;20.71;33.08
66396;BME280;53207;51.378;-1.342;2023-04-16T03:21:12;101163.39;;;20.48;33.02
66396;BME280;53207;51.378;-1.342;2023-04-16T03:23:39;101161.30;;;20.68;33.08
66396;BME280;53207;51.378;-1.342;2023-04-16T03:26:07;101162.28;;;20.48;33.00
66396;BME280;53207;51.378;-1.342;2023-04-16T03:28:34;101163.21;;;20.40;33.05
66396;BME280;53207;51.378;-1.342;2023-04-16T03:31:02;101161.41;;;20.42;33.01
66396;BME280;53207;51.378;-1.342;2023-04-16T03:33:29;101161.77;;;20.39;33.02
66396;BME280;53207;51.378;-1.342;2023-04-16T03:35:56;101163.11;;;20.38;33.02
66396;BME280;53207;51.378;-1.342;2023-04-16T03:38:24;101162.53;;;20.38;33.00
66396;BME280;53207;51.378;-1.342;2023-04-16T03:40:51;101164.49;;;20.69;32.92
66396;BME280;53207;51.378;-1.342;2023-04-16T03:43:18;101161.20;;;20.68;32.92
66396;BME280;53207;51.378;-1.342;2023-04-16T03:45:45;101157.51;;;20.35;32.96
66396;BME280;53207;51.378;-1.342;2023-04-16T03:48:13;101155.10;;;20.67;32.89
66396;BME280;53207;51.378;-1.342;2023-04-16T03:50:44;101154.05;;;20.33;32.95
66396;BME280;53207;51.378;-1.342;2023-04-16T03:53:12;101154.19;;;20.60;32.92
66396;BME280;53207;51.378;-1.342;2023-04-16T03:55:39;101152.12;;;20.36;32.88
66396;BME280;53207;51.378;-1.342;2023-04-16T03:58:06;101149.75;;;20.34;32.89
66396;BME280;53207;51.378;-1.342;2023-04-16T04:00:34;101145.59;;;20.58;32.89
66396;BME280;53207;51.378;-1.342;2023-04-16T04:03:01;101146.62;;;20.30;32.89
66396;BME280;53207;51.378;-1.342;2023-04-16T04:05:28;101145.49;;;20.28;32.89
66396;BME280;53207;51.378;-1.342;2023-04-16T04:07:55;101143.13;;;20.55;32.87
66396;BME280;53207;51.378;-1.342;2023-04-16T04:10:23;101143.44;;;20.24;32.91
66396;BME280;53207;51.378;-1.342;2023-04-16T04:12:50;101144.83;;;20.27;32.85
66396;BME280;53207;51.378;-1.342;2023-04-16T04:15:18;101145.54;;;20.19;32.90
66396;BME280;53207;51.378;-1.342;2023-04-16T04:17:45;101144.57;;;20.19;32.89
66396;BME280;53207;51.378;-1.342;2023-04-16T04:20:12;101143.87;;;20.23;32.83
66396;BME280;53207;51.378;-1.342;2023-04-16T04:22:39;101143.51;;;20.16;32.90
66396;BME280;53207;51.378;-1.342;2023-04-16T04:25:08;101145.64;;;20.16;32.88
66396;BME280;53207;51.378;-1.342;2023-04-16T04:27:36;101145.09;;;20.43;32.87
66396;BME280;53207;51.378;-1.342;2023-04-16T04:30:05;101145.45;;;20.14;32.87
66396;BME280;53207;51.378;-1.342;2023-04-16T04:32:33;101148.90;;;20.15;32.85
66396;BME280;53207;51.378;-1.342;2023-04-16T04:35:02;101147.32;;;20.10;32.89
66396;BME280;53207;51.378;-1.342;2023-04-16T04:37:29;101145.50;;;20.60;32.87
66396;BME280;53207;51.378;-1.342;2023-04-16T04:39:57;101142.86;;;20.35;32.88
66396;BME280;53207;51.378;-1.342;2023-04-16T04:42:24;101143.62;;;20.09;32.86
66396;BME280;53207;51.378;-1.342;2023-04-16T04:44:51;101141.16;;;20.05;32.89
66396;BME280;53207;51.378;-1.342;2023-04-16T04:47:19;101141.44;;;20.30;32.89
66396;BME280;53207;51.378;-1.342;2023-04-16T04:49:46;101140.72;;;20.26;32.92
66396;BME280;53207;51.378;-1.342;2023-04-16T04:52:13;101142.35;;;20.28;32.90
66396;BME280;53207;51.378;-1.342;2023-04-16T04:54:41;101142.23;;;20.24;32.93
66396;BME280;53207;51.378;-1.342;2023-04-16T04:57:08;101142.44;;;19.95;32.95
66396;BME280;53207;51.378;-1.342;2023-04-16T04:59:35;101139.54;;;20.01;32.86
66396;BME280;53207;51.378;-1.342;2023-04-16T05:02:03;101138.80;;;20.25;32.87
66396;BME280;53207;51.378;-1.342;2023-04-16T05:04:30;101139.11;;;20.27;32.84
66396;BME280;53207;51.378;-1.342;2023-04-16T05:06:57;101141.63;;;19.98;32.88
66396;BME280;53207;51.378;-1.342;2023-04-16T05:09:25;101142.43;;;20.28;32.83
66396;BME280;53207;51.378;-1.342;2023-04-16T05:11:52;101144.47;;;20.48;32.87
66396;BME280;53207;51.378;-1.342;2023-04-16T05:14:19;101146.44;;;20.02;32.87
66396;BME280;53207;51.378;-1.342;2023-04-16T05:16:46;101146.34;;;20.03;32.89
66396;BME280;53207;51.378;-1.342;2023-04-16T05:19:14;101146.95;;;20.29;32.92
66396;BME280;53207;51.378;-1.342;2023-04-16T05:21:42;101149.29;;;20.24;32.95
66396;BME280;53207;51.378;-1.342;2023-04-16T05:24:09;101148.81;;;19.97;32.98
66396;BME280;53207;51.378;-1.342;2023-04-16T05:26:37;101149.85;;;19.97;32.98
66396;BME280;53207;51.378;-1.342;2023-04-16T05:29:04;101149.43;;;19.96;33.00
66396;BME280;53207;51.378;-1.342;2023-04-16T05:31:31;101150.65;;;20.22;32.99
66396;BME280;53207;51.378;-1.342;2023-04-16T05:33:59;101152.25;;;20.19;33.04
66396;BME280;53207;51.378;-1.342;2023-04-16T05:36:26;101152.52;;;20.39;33.05
66396;BME280;53207;51.378;-1.342;2023-04-16T05:38:53;101154.37;;;20.16;33.04
66396;BME280;53207;51.378;-1.342;2023-04-16T05:41:20;101154.26;;;20.41;33.00
66396;BME280;53207;51.378;-1.342;2023-04-16T05:43:48;101153.02;;;20.38;33.05
66396;BME280;53207;51.378;-1.342;2023-04-16T05:46:15;101153.43;;;20.39;32.99
66396;BME280;53207;51.378;-1.342;2023-04-16T05:48:42;101154.16;;;20.15;33.01
66396;BME280;53207;51.378;-1.342;2023-04-16T05:51:10;101151.41;;;19.85;33.06
66396;BME280;53207;51.378;-1.342;2023-04-16T05:53:37;101154.65;;;20.40;32.99
66396;BME280;53207;51.378;-1.342;2023-04-16T05:56:05;101155.64;;;20.19;32.93
66396;BME280;53207;51.378;-1.342;2023-04-16T05:58:33;101154.11;;;20.44;32.96
66396;BME280;53207;51.378;-1.342;2023-04-16T06:01:00;101151.41;;;19.86;33.11
66396;BME280;53207;51.378;-1.342;2023-04-16T06:03:27;101151.98;;;20.34;33.03
66396;BME280;53207;51.378;-1.342;2023-04-16T06:05:54;101153.27;;;20.22;33.04
66396;BME280;53207;51.378;-1.342;2023-04-16T06:08:22;101153.85;;;20.85;33.17
66396;BME280;53207;51.378;-1.342;2023-04-16T06:10:49;101154.93;;;20.47;33.24
66396;BME280;53207;51.378;-1.342;2023-04-16T06:13:16;101153.42;;;20.67;33.09
66396;BME280;53207;51.378;-1.342;2023-04-16T06:15:44;101155.87;;;21.07;33.01
66396;BME280;53207;51.378;-1.342;2023-04-16T06:18:11;101156.52;;;20.96;32.87
66396;BME280;53207;51.378;-1.342;2023-04-16T06:20:38;101162.11;;;20.63;32.79
66396;BME280;53207;51.378;-1.342;2023-04-16T06:23:06;101162.10;;;20.98;32.71
66396;BME280;53207;51.378;-1.342;2023-04-16T06:25:33;101164.21;;;21.28;32.67
66396;BME280;53207;51.378;-1.342;2023-04-16T06:28:00;101163.61;;;21.16;32.57
66396;BME280;53207;51.378;-1.342;2023-04-16T06:30:28;101164.08;;;21.47;32.49
66396;BME280;53207;51.378;-1.342;2023-04-16T06:32:55;101161.70;;;21.12;32.41
66396;BME280;53207;51.378;-1.342;2023-04-16T06:35:22;101162.72;;;21.40;32.39
66396;BME280;53207;51.378;-1.342;2023-04-16T06:37:49;101163.43;;;21.42;32.45
66396;BME280;53207;51.378;-1.342;2023-04-16T06:40:16;101162.78;;;21.30;32.44
66396;BME280;53207;51.378;-1.342;2023-04-16T06:42:44;101166.72;;;21.32;32.49
66396;BME280;53207;51.378;-1.342;2023-04-16T06:45:12;101166.25;;;21.67;32.42
66396;BME280;53207;51.378;-1.342;2023-04-16T06:47:39;101165.94;;;21.64;32.50
66396;BME280;53207;51.378;-1.342;2023-04-16T06:50:08;101168.91;;;21.46;32.54
66396;BME280;53207;51.378;-1.342;2023-04-16T06:52:35;101169.16;;;21.67;32.59
66396;BME280;53207;51.378;-1.342;2023-04-16T06:55:02;101171.21;;;21.95;32.54
66396;BME280;53207;51.378;-1.342;2023-04-16T06:57:29;101176.30;;;21.47;32.60
66396;BME280;53207;51.378;-1.342;2023-04-16T06:59:57;101182.88;;;21.44;32.66
66396;BME280;53207;51.378;-1.342;2023-04-16T07:02:24;101187.54;;;21.42;32.68
66396;BME280;53207;51.378;-1.342;2023-04-16T07:04:51;101187.89;;;21.61;32.68
66396;BME280;53207;51.378;-1.342;2023-04-16T07:07:19;101191.13;;;21.40;32.69
66396;BME280;53207;51.378;-1.342;2023-04-16T07:09:46;101190.87;;;21.36;32.71
66396;BME280;53207;51.378;-1.342;2023-04-16T07:12:13;101192.65;;;21.35;32.72
66396;BME280;53207;51.378;-1.342;2023-04-16T07:14:41;101192.46;;;21.29;32.75
66396;BME280;53207;51.378;-1.342;2023-04-16T07:17:08;101194.73;;;21.44;32.83
66396;BME280;53207;51.378;-1.342;2023-04-16T07:19:35;101197.53;;;21.29;32.77
66396;BME280;53207;51.378;-1.342;2023-04-16T07:22:03;101202.86;;;21.29;32.68
66396;BME280;53207;51.378;-1.342;2023-04-16T07:24:30;101201.91;;;21.27;32.65
66396;BME280;53207;51.378;-1.342;2023-04-16T07:26:57;101205.14;;;21.23;32.67
66396;BME280;53207;51.378;-1.342;2023-04-16T07:29:24;101207.31;;;21.23;32.66
66396;BME280;53207;51.378;-1.342;2023-04-16T07:31:52;101210.49;;;21.20;32.68
66396;BME280;53207;51.378;-1.342;2023-04-16T07:34:19;101214.03;;;21.70;32.62
66396;BME280;53207;51.378;-1.342;2023-04-16T07:36:46;101215.67;;;21.18;32.67
66396;BME280;53207;51.378;-1.342;2023-04-16T07:39:13;101220.13;;;21.20;32.66
66396;BME280;53207;51.378;-1.342;2023-04-16T07:41:41;101218.30;;;21.16;32.66
66396;BME280;53207;51.378;-1.342;2023-04-16T07:44:09;101218.63;;;21.19;32.62
66396;BME280;53207;51.378;-1.342;2023-04-16T07:46:36;101222.98;;;21.17;32.66
66396;BME280;53207;51.378;-1.342;2023-04-16T07:49:04;101224.50;;;21.12;32.73
66396;BME280;53207;51.378;-1.342;2023-04-16T07:51:31;101222.04;;;21.22;32.71
66396;BME280;53207;51.378;-1.342;2023-04-16T07:53:58;101224.33;;;21.20;32.76
66396;BME280;53207;51.378;-1.342;2023-04-16T07:56:25;101227.67;;;21.48;32.72
66396;BME280;53207;51.378;-1.342;2023-04-16T07:58:53;101228.07;;;21.28;32.67
66396;BME280;53207;51.378;-1.342;2023-04-16T08:01:20;101230.82;;;21.27;32.71
66396;BME280;53207;51.378;-1.342;2023-04-16T08:03:47;101231.36;;;21.27;32.77
66396;BME280;53207;51.378;-1.342;2023-04-16T08:06:15;101230.72;;;21.54;32.84
66396;BME280;53207;51.378;-1.342;2023-04-16T08:08:42;101232.28;;;21.32;32.84
66396;BME280;53207;51.378;-1.342;2023-04-16T08:11:09;101233.94;;;21.37;32.78
66396;BME280;53207;51.378;-1.342;2023-04-16T08:13:36;101235.79;;;21.38;32.74
66396;BME280;53207;51.378;-1.342;2023-04-16T08:16:04;101236.98;;;21.39;32.77
66396;BME280;53207;51.378;-1.342;2023-04-16T08:18:31;101238.92;;;21.38;32.80
66396;BME280;53207;51.378;-1.342;2023-04-16T08:20:59;101240.83;;;21.34;32.79
66396;BME280;53207;51.378;-1.342;2023-04-16T08:23:26;101242.46;;;21.25;32.81
66396;BME280;53207;51.378;-1.342;2023-04-16T08:25:53;101244.84;;;21.32;32.72
66396;BME280;53207;51.378;-1.342;2023-04-16T08:28:21;101245.47;;;21.35;32.63
66396;BME280;53207;51.378;-1.342;2023-04-16T08:30:48;101246.37;;;21.31;32.62
66396;BME280;53207;51.378;-1.342;2023-04-16T08:33:15;101247.50;;;21.28;32.62
66396;BME280;53207;51.378;-1.342;2023-04-16T08:35:43;101250.60;;;21.25;32.62
66396;BME280;53207;51.378;-1.342;2023-04-16T08:38:10;101250.53;;;21.18;32.64
66396;BME280;53207;51.378;-1.342;2023-04-16T08:40:37;101254.05;;;21.40;32.62
66396;BME280;53207;51.378;-1.342;2023-04-16T08:43:09;101254.79;;;21.15;32.58
66396;BME280;53207;51.378;-1.342;2023-04-16T08:45:40;101254.31;;;21.20;32.48
66396;BME280;53207;51.378;-1.342;2023-04-16T08:48:10;101256.46;;;21.27;32.38
66396;BME280;53207;51.378;-1.342;2023-04-16T08:50:40;101255.83;;;21.50;32.32
66396;BME280;53207;51.378;-1.342;2023-04-16T08:53:10;101257.64;;;21.47;32.33
66396;BME280;53207;51.378;-1.342;2023-04-16T08:55:39;101258.74;;;21.26;32.35
66396;BME280;53207;51.378;-1.342;2023-04-16T08:58:10;101259.03;;;21.44;32.40
66396;BME280;53207;51.378;-1.342;2023-04-16T09:00:39;101258.94;;;21.44;32.41
66396;BME280;53207;51.378;-1.342;2023-04-16T09:03:08;101259.19;;;21.42;32.43
66396;BME280;53207;51.378;-1.342;2023-04-16T09:05:36;101261.33;;;21.22;32.40
66396;BME280;53207;51.378;-1.342;2023-04-16T09:08:04;101264.51;;;21.21;32.43
66396;BME280;53207;51.378;-1.342;2023-04-16T09:10:32;101267.85;;;21.19;32.45
66396;BME280;53207;51.378;-1.342;2023-04-16T09:13:00;101272.57;;;21.19;32.43
66396;BME280;53207;51.378;-1.342;2023-04-16T09:15:27;101273.71;;;21.40;32.45
66396;BME280;53207;51.378;-1.342;2023-04-16T09:17:54;101273.06;;;21.40;32.42
66396;BME280;53207;51.378;-1.342;2023-04-16T09:20:22;101274.68;;;21.19;32.40
66396;BME280;53207;51.378;-1.342;2023-04-16T09:22:49;101276.71;;;21.42;32.37
66396;BME280;53207;51.378;-1.342;2023-04-16T09:25:16;101279.10;;;21.63;32.37
66396;BME280;53207;51.378;-1.342;2023-04-16T09:27:48;101282.20;;;21.18;32.36
66396;BME280;53207;51.378;-1.342;2023-04-16T09:30:21;101284.49;;;21.20;32.30
66396;BME280;53207;51.378;-1.342;2023-04-16T09:32:49;101284.92;;;21.19;32.30
66396;BME280;53207;51.378;-1.342;2023-04-16T09:35:18;101281.14;;;21.18;32.29
66396;BME280;53207;51.378;-1.342;2023-04-16T09:37:54;101280.83;;;21.20;32.24
66396;BME280;53207;51.378;-1.342;2023-04-16T09:40:24;101279.66;;;21.22;32.20
66396;BME280;53207;51.378;-1.342;2023-04-16T09:42:51;101281.88;;;21.66;32.19
66396;BME280;53207;51.378;-1.342;2023-04-16T09:45:18;101279.97;;;21.21;32.21
66396;BME280;53207;51.378;-1.342;2023-04-16T09:47:46;101279.26;;;21.23;32.19
66396;BME280;53207;51.378;-1.342;2023-04-16T09:50:14;101278.50;;;21.21;32.19
66396;BME280;53207;51.378;-1.342;2023-04-16T09:52:47;101282.04;;;21.26;32.13
66396;BME280;53207;51.378;-1.342;2023-04-16T09:55:14;101282.49;;;21.19;32.23
66396;BME280;53207;51.378;-1.342;2023-04-16T09:57:42;101282.82;;;21.25;32.16
66396;BME280;53207;51.378;-1.342;2023-04-16T10:00:10;101284.34;;;21.24;32.15
66396;BME280;53207;51.378;-1.342;2023-04-16T10:02:39;101286.38;;;21.28;32.10
66396;BME280;53207;51.378;-1.342;2023-04-16T10:05:07;101288.16;;;21.51;32.10
66396;BME280;53207;51.378;-1.342;2023-04-16T10:07:35;101287.05;;;21.30;32.09
66396;BME280;53207;51.378;-1.342;2023-04-16T10:10:03;101292.23;;;21.37;32.24
66396;BME280;53207;51.378;-1.342;2023-04-16T10:12:30;101298.16;;;21.26;32.12
66396;BME280;53207;51.378;-1.342;2023-04-16T10:14:57;101294.46;;;21.25;32.09
66396;BME280;53207;51.378;-1.342;2023-04-16T10:17:25;101295.48;;;21.15;32.18
66396;BME280;53207;51.378;-1.342;2023-04-16T10:19:53;101294.16;;;21.21;32.09
66396;BME280;53207;51.378;-1.342;2023-04-16T10:22:20;101293.75;;;21.15;32.05
66396;BME280;53207;51.378;-1.342;2023-04-16T10:24:48;101293.71;;;21.39;32.04
66396;BME280;53207;51.378;-1.342;2023-04-16T10:27:15;101293.35;;;21.39;31.99
66396;BME280;53207;51.378;-1.342;2023-04-16T10:29:43;101295.17;;;21.37;32.03
66396;BME280;53207;51.378;-1.342;2023-04-16T10:32:11;101298.06;;;21.30;32.14
66396;BME280;53207;51.378;-1.342;2023-04-16T10:34:39;101299.25;;;21.16;32.02
66396;BME280;53207;51.378;-1.342;2023-04-16T10:37:06;101296.92;;;21.16;32.02
66396;BME280;53207;51.378;-1.342;2023-04-16T10:39:34;101299.95;;;21.17;32.02
66396;BME280;53207;51.378;-1.342;2023-04-16T10:42:10;101298.69;;;21.16;32.02
66396;BME280;53207;51.378;-1.342;2023-04-16T10:44:38;101298.29;;;21.15;32.03
66396;BME280;53207;51.378;-1.342;2023-04-16T10:47:09;101294.91;;;21.17;32.00
66396;BME280;53207;51.378;-1.342;2023-04-16T10:49:37;101292.75;;;21.55;32.00
66396;BME280;53207;51.378;-1.342;2023-04-16T10:52:09;101294.68;;;21.41;31.94
66396;BME280;53207;51.378;-1.342;2023-04-16T10:54:37;101292.37;;;21.17;31.96
66396;BME280;53207;51.378;-1.342;2023-04-16T10:57:07;101292.27;;;21.39;31.94
66396;BME280;53207;51.378;-1.342;2023-04-16T10:59:35;101290.74;;;21.19;31.96
66396;BME280;53207;51.378;-1.342;2023-04-16T11:02:06;101289.94;;;21.10;32.05
66396;BME280;53207;51.378;-1.342;2023-04-16T11:04:35;101288.64;;;21.21;31.93
66396;BME280;53207;51.378;-1.342;2023-04-16T11:07:05;101286.78;;;21.13;31.99
66396;BME280;53207;51.378;-1.342;2023-04-16T11:09:43;101284.91;;;21.22;31.93
66396;BME280;53207;51.378;-1.342;2023-04-16T11:12:12;101283.37;;;21.71;31.90
66396;BME280;53207;51.378;-1.342;2023-04-16T11:14:41;101283.56;;;21.40;31.96
66396;BME280;53207;51.378;-1.342;2023-04-16T11:17:08;101282.25;;;21.24;31.95
66396;BME280;53207;51.378;-1.342;2023-04-16T11:19:35;101283.01;;;21.45;32.17
66396;BME280;53207;51.378;-1.342;2023-04-16T11:22:03;101284.44;;;21.40;32.03
66396;BME280;53207;51.378;-1.342;2023-04-16T11:24:31;101284.58;;;21.21;32.00
66396;BME280;53207;51.378;-1.342;2023-04-16T11:26:58;101281.60;;;21.50;31.90
66396;BME280;53207;51.378;-1.342;2023-04-16T11:29:25;101282.77;;;21.33;31.88
66396;BME280;53207;51.378;-1.342;2023-04-16T11:31:53;101281.58;;;21.72;31.89
66396;BME280;53207;51.378;-1.342;2023-04-16T11:34:21;101284.96;;;21.31;31.87
66396;BME280;53207;51.378;-1.342;2023-04-16T11:36:49;101283.16;;;21.49;31.90
66396;BME280;53207;51.378;-1.342;2023-04-16T11:39:17;101286.81;;;21.22;31.78
66396;BME280;53207;51.378;-1.342;2023-04-16T11:41:45;101288.61;;;21.30;31.79
66396;BME280;53207;51.378;-1.342;2023-04-16T11:44:17;101291.64;;;21.32;31.80
66396;BME280;53207;51.378;-1.342;2023-04-16T11:46:44;101291.32;;;21.30;31.79
66396;BME280;53207;51.378;-1.342;2023-04-16T11:49:12;101285.94;;;21.24;31.78
66396;BME280;53207;51.378;-1.342;2023-04-16T11:51:39;101287.71;;;21.19;31.77
66396;BME280;53207;51.378;-1.342;2023-04-16T11:54:06;101287.91;;;21.17;31.72
66396;BME280;53207;51.378;-1.342;2023-04-16T11:56:35;101286.11;;;21.18;31.75
66396;BME280;53207;51.378;-1.342;2023-04-16T11:59:07;101286.13;;;21.31;31.73
66396;BME280;53207;51.378;-1.342;2023-04-16T12:01:36;101286.07;;;21.16;31.67
66396;BME280;53207;51.378;-1.342;2023-04-16T12:04:03;101288.07;;;21.14;31.76
66396;BME280;53207;51.378;-1.342;2023-04-16T12:06:30;101292.59;;;21.16;31.62
66396;BME280;53207;51.378;-1.342;2023-04-16T12:08:57;101291.55;;;21.11;31.74
66396;BME280;53207;51.378;-1.342;2023-04-16T12:11:41;101293.83;;;21.08;31.80
66396;BME280;53207;51.378;-1.342;2023-04-16T12:14:09;101295.00;;;21.27;31.88
66396;BME280;53207;51.378;-1.342;2023-04-16T12:16:37;101298.30;;;21.07;31.84
66396;BME280;53207;51.378;-1.342;2023-04-16T12:19:04;101298.29;;;21.06;31.80
66396;BME280;53207;51.378;-1.342;2023-04-16T12:21:40;101298.98;;;21.07;31.85
66396;BME280;53207;51.378;-1.342;2023-04-16T12:24:10;101297.14;;;21.02;31.87
66396;BME280;53207;51.378;-1.342;2023-04-16T12:26:40;101296.99;;;21.10;31.84
66396;BME280;53207;51.378;-1.342;2023-04-16T12:29:24;101292.82;;;21.11;31.74
66396;BME280;53207;51.378;-1.342;2023-04-16T12:31:53;101294.09;;;21.09;31.84
66396;BME280;53207;51.378;-1.342;2023-04-16T12:34:21;101293.64;;;21.03;31.91
66396;BME280;53207;51.378;-1.342;2023-04-16T12:37:04;101295.31;;;21.32;31.84
66396;BME280;53207;51.378;-1.342;2023-04-16T12:39:31;101296.82;;;21.05;31.75
66396;BME280;53207;51.378;-1.342;2023-04-16T12:41:59;101297.73;;;21.07;31.84
66396;BME280;53207;51.378;-1.342;2023-04-16T12:44:26;101296.28;;;21.21;31.94